sensor_id;sensor_type;location;lat;lon;timestamp;P1;durP1;ratioP1;P2;durP2;ratioP2
56331;SDS011;42237;53.340;6.812;2022-10-16T00:02:01;7.10;;;1.83;;
56331;SDS011;42237;53.340;6.812;2022-10-16T00:04:27;6.20;;;1.50;;
56331;SDS011;42237;53.340;6.812;2022-10-16T00:06:53;5.38;;;1.63;;
56331;SDS011;42237;53.340;6.812;2022-10-16T00:09:18;8.77;;;1.40;;
56331;SDS011;42237;53.340;6.812;2022-10-16T00:11:44;6.72;;;2.42;;
56331;SDS011;42237;53.340;6.812;2022-10-16T00:14:12;4.88;;;1.33;;
56331;SDS011;42237;53.340;6.812;2022-10-16T00:16:39;6.65;;;1.70;;
56331;SDS011;42237;53.340;6.812;2022-10-16T00:19:05;5.28;;;1.23;;
56331;SDS011;42237;53.340;6.812;2022-10-16T00:21:31;6.60;;;1.85;;
56331;SDS011;42237;53.340;6.812;2022-10-16T00:23:58;5.43;;;1.60;;
56331;SDS011;42237;53.340;6.812;2022-10-16T00:26:26;4.70;;;1.55;;
56331;SDS011;42237;53.340;6.812;2022-10-16T00:28:53;3.97;;;1.67;;
56331;SDS011;42237;53.340;6.812;2022-10-16T00:31:20;5.78;;;1.58;;
56331;SDS011;42237;53.340;6.812;2022-10-16T00:33:46;7.72;;;2.22;;
56331;SDS011;42237;53.340;6.812;2022-10-16T00:36:13;5.00;;;1.63;;
56331;SDS011;42237;53.340;6.812;2022-10-16T00:38:41;5.78;;;1.50;;
56331;SDS011;42237;53.340;6.812;2022-10-16T00:41:07;7.18;;;1.50;;
56331;SDS011;42237;53.340;6.812;2022-10-16T00:46:16;6.30;;;1.90;;
56331;SDS011;42237;53.340;6.812;2022-10-16T00:49:03;4.55;;;1.60;;
56331;SDS011;42237;53.340;6.812;2022-10-16T00:51:41;6.88;;;2.00;;
56331;SDS011;42237;53.340;6.812;2022-10-16T00:54:13;7.25;;;1.30;;
56331;SDS011;42237;53.340;6.812;2022-10-16T00:56:46;7.18;;;1.50;;
56331;SDS011;42237;53.340;6.812;2022-10-16T00:59:20;10.20;;;2.13;;
56331;SDS011;42237;53.340;6.812;2022-10-16T01:01:52;6.72;;;1.70;;
56331;SDS011;42237;53.340;6.812;2022-10-16T01:04:19;5.75;;;1.83;;
56331;SDS011;42237;53.340;6.812;2022-10-16T01:06:57;5.35;;;1.48;;
56331;SDS011;42237;53.340;6.812;2022-10-16T01:12:26;8.48;;;1.70;;
56331;SDS011;42237;53.340;6.812;2022-10-16T01:20:26;8.07;;;2.30;;
56331;SDS011;42237;53.340;6.812;2022-10-16T01:25:36;8.93;;;2.63;;
56331;SDS011;42237;53.340;6.812;2022-10-16T01:28:25;5.78;;;1.95;;
56331;SDS011;42237;53.340;6.812;2022-10-16T01:30:58;8.07;;;2.08;;
56331;SDS011;42237;53.340;6.812;2022-10-16T01:33:35;6.53;;;1.70;;
56331;SDS011;42237;53.340;6.812;2022-10-16T01:36:09;6.97;;;1.58;;
56331;SDS011;42237;53.340;6.812;2022-10-16T01:38:40;7.18;;;2.10;;
56331;SDS011;42237;53.340;6.812;2022-10-16T01:41:32;5.90;;;1.70;;
56331;SDS011;42237;53.340;6.812;2022-10-16T01:44:01;4.53;;;2.17;;
56331;SDS011;42237;53.340;6.812;2022-10-16T01:46:36;3.90;;;1.73;;
56331;SDS011;42237;53.340;6.812;2022-10-16T01:49:04;6.43;;;1.58;;
56331;SDS011;42237;53.340;6.812;2022-10-16T01:51:31;5.05;;;1.73;;
56331;SDS011;42237;53.340;6.812;2022-10-16T01:53:58;5.00;;;1.70;;
56331;SDS011;42237;53.340;6.812;2022-10-16T01:56:26;5.53;;;1.40;;
56331;SDS011;42237;53.340;6.812;2022-10-16T01:59:01;9.43;;;1.52;;
56331;SDS011;42237;53.340;6.812;2022-10-16T02:01:35;7.03;;;1.30;;
56331;SDS011;42237;53.340;6.812;2022-10-16T02:04:04;3.78;;;1.33;;
56331;SDS011;42237;53.340;6.812;2022-10-16T02:06:52;6.93;;;1.65;;
56331;SDS011;42237;53.340;6.812;2022-10-16T02:09:18;5.55;;;1.48;;
56331;SDS011;42237;53.340;6.812;2022-10-16T02:11:43;3.58;;;1.23;;
56331;SDS011;42237;53.340;6.812;2022-10-16T02:14:10;7.47;;;1.60;;
56331;SDS011;42237;53.340;6.812;2022-10-16T02:16:36;12.75;;;1.48;;
56331;SDS011;42237;53.340;6.812;2022-10-16T02:19:07;3.83;;;1.52;;
56331;SDS011;42237;53.340;6.812;2022-10-16T02:26:57;2.95;;;1.50;;
56331;SDS011;42237;53.340;6.812;2022-10-16T02:29:33;4.47;;;1.50;;
56331;SDS011;42237;53.340;6.812;2022-10-16T02:32:04;5.22;;;1.60;;
56331;SDS011;42237;53.340;6.812;2022-10-16T02:34:32;5.57;;;1.63;;
56331;SDS011;42237;53.340;6.812;2022-10-16T02:36:58;4.25;;;1.40;;
56331;SDS011;42237;53.340;6.812;2022-10-16T02:39:26;5.30;;;1.98;;
56331;SDS011;42237;53.340;6.812;2022-10-16T02:41:53;5.05;;;1.50;;
56331;SDS011;42237;53.340;6.812;2022-10-16T02:44:19;4.60;;;1.85;;
56331;SDS011;42237;53.340;6.812;2022-10-16T02:46:45;2.92;;;1.40;;
56331;SDS011;42237;53.340;6.812;2022-10-16T02:49:10;5.72;;;1.60;;
56331;SDS011;42237;53.340;6.812;2022-10-16T02:51:36;3.88;;;1.42;;
56331;SDS011;42237;53.340;6.812;2022-10-16T02:54:02;4.32;;;1.50;;
56331;SDS011;42237;53.340;6.812;2022-10-16T02:56:28;4.35;;;1.83;;
56331;SDS011;42237;53.340;6.812;2022-10-16T02:58:55;5.30;;;1.50;;
56331;SDS011;42237;53.340;6.812;2022-10-16T03:01:21;4.10;;;1.77;;
56331;SDS011;42237;53.340;6.812;2022-10-16T03:03:46;3.10;;;1.50;;
56331;SDS011;42237;53.340;6.812;2022-10-16T03:06:12;3.80;;;1.15;;
56331;SDS011;42237;53.340;6.812;2022-10-16T03:08:38;5.20;;;1.92;;
56331;SDS011;42237;53.340;6.812;2022-10-16T03:11:03;5.10;;;1.60;;
56331;SDS011;42237;53.340;6.812;2022-10-16T03:13:29;2.88;;;1.35;;
56331;SDS011;42237;53.340;6.812;2022-10-16T03:15:55;7.25;;;1.42;;
56331;SDS011;42237;53.340;6.812;2022-10-16T03:18:20;3.75;;;1.33;;
56331;SDS011;42237;53.340;6.812;2022-10-16T03:20:46;6.13;;;1.65;;
56331;SDS011;42237;53.340;6.812;2022-10-16T03:23:12;3.72;;;1.65;;
56331;SDS011;42237;53.340;6.812;2022-10-16T03:25:38;4.72;;;1.42;;
56331;SDS011;42237;53.340;6.812;2022-10-16T03:28:04;3.55;;;1.80;;
56331;SDS011;42237;53.340;6.812;2022-10-16T03:30:30;3.75;;;1.52;;
56331;SDS011;42237;53.340;6.812;2022-10-16T03:32:56;6.65;;;1.65;;
56331;SDS011;42237;53.340;6.812;2022-10-16T03:35:22;3.55;;;1.42;;
56331;SDS011;42237;53.340;6.812;2022-10-16T03:37:49;4.63;;;1.45;;
56331;SDS011;42237;53.340;6.812;2022-10-16T03:40:15;4.78;;;1.77;;
56331;SDS011;42237;53.340;6.812;2022-10-16T03:42:44;5.60;;;1.27;;
56331;SDS011;42237;53.340;6.812;2022-10-16T03:45:10;5.63;;;2.13;;
56331;SDS011;42237;53.340;6.812;2022-10-16T03:47:36;4.03;;;1.50;;
56331;SDS011;42237;53.340;6.812;2022-10-16T03:50:02;8.63;;;1.50;;
56331;SDS011;42237;53.340;6.812;2022-10-16T03:52:29;3.28;;;1.30;;
56331;SDS011;42237;53.340;6.812;2022-10-16T03:54:54;5.15;;;2.63;;
56331;SDS011;42237;53.340;6.812;2022-10-16T03:57:20;2.85;;;1.60;;
56331;SDS011;42237;53.340;6.812;2022-10-16T03:59:46;5.25;;;1.88;;
56331;SDS011;42237;53.340;6.812;2022-10-16T04:02:12;4.35;;;1.25;;
56331;SDS011;42237;53.340;6.812;2022-10-16T04:04:38;3.63;;;1.65;;
56331;SDS011;42237;53.340;6.812;2022-10-16T04:07:04;4.72;;;1.58;;
56331;SDS011;42237;53.340;6.812;2022-10-16T04:09:30;2.70;;;1.58;;
56331;SDS011;42237;53.340;6.812;2022-10-16T04:11:55;2.58;;;1.30;;
56331;SDS011;42237;53.340;6.812;2022-10-16T04:14:21;5.22;;;1.52;;
56331;SDS011;42237;53.340;6.812;2022-10-16T04:16:47;3.67;;;1.30;;
56331;SDS011;42237;53.340;6.812;2022-10-16T04:19:13;3.88;;;1.52;;
56331;SDS011;42237;53.340;6.812;2022-10-16T04:21:38;3.08;;;1.40;;
56331;SDS011;42237;53.340;6.812;2022-10-16T04:24:04;4.63;;;1.80;;
56331;SDS011;42237;53.340;6.812;2022-10-16T04:26:30;2.33;;;1.40;;
56331;SDS011;42237;53.340;6.812;2022-10-16T04:28:55;3.60;;;1.30;;
56331;SDS011;42237;53.340;6.812;2022-10-16T04:31:21;7.20;;;1.63;;
56331;SDS011;42237;53.340;6.812;2022-10-16T04:33:47;3.13;;;1.52;;
56331;SDS011;42237;53.340;6.812;2022-10-16T04:36:13;2.95;;;1.38;;
56331;SDS011;42237;53.340;6.812;2022-10-16T04:38:38;2.83;;;1.50;;
56331;SDS011;42237;53.340;6.812;2022-10-16T04:41:05;5.35;;;2.03;;
56331;SDS011;42237;53.340;6.812;2022-10-16T04:43:31;6.70;;;1.70;;
56331;SDS011;42237;53.340;6.812;2022-10-16T04:45:57;5.72;;;1.90;;
56331;SDS011;42237;53.340;6.812;2022-10-16T04:48:22;8.70;;;2.17;;
56331;SDS011;42237;53.340;6.812;2022-10-16T04:50:48;2.83;;;1.50;;
56331;SDS011;42237;53.340;6.812;2022-10-16T04:53:14;5.45;;;1.92;;
56331;SDS011;42237;53.340;6.812;2022-10-16T04:55:40;4.30;;;1.58;;
56331;SDS011;42237;53.340;6.812;2022-10-16T04:58:06;6.07;;;1.75;;
56331;SDS011;42237;53.340;6.812;2022-10-16T05:00:32;5.25;;;1.48;;
56331;SDS011;42237;53.340;6.812;2022-10-16T05:02:58;3.33;;;1.80;;
56331;SDS011;42237;53.340;6.812;2022-10-16T05:05:25;7.90;;;1.60;;
56331;SDS011;42237;53.340;6.812;2022-10-16T05:07:52;3.95;;;1.45;;
56331;SDS011;42237;53.340;6.812;2022-10-16T05:10:17;4.10;;;2.17;;
56331;SDS011;42237;53.340;6.812;2022-10-16T05:12:43;5.75;;;1.88;;
56331;SDS011;42237;53.340;6.812;2022-10-16T05:15:09;5.80;;;1.80;;
56331;SDS011;42237;53.340;6.812;2022-10-16T05:17:35;2.90;;;1.60;;
56331;SDS011;42237;53.340;6.812;2022-10-16T05:20:00;5.78;;;2.05;;
56331;SDS011;42237;53.340;6.812;2022-10-16T05:22:26;7.20;;;1.90;;
56331;SDS011;42237;53.340;6.812;2022-10-16T05:24:52;3.78;;;1.67;;
56331;SDS011;42237;53.340;6.812;2022-10-16T05:27:18;7.88;;;1.67;;
56331;SDS011;42237;53.340;6.812;2022-10-16T05:29:44;2.45;;;1.30;;
56331;SDS011;42237;53.340;6.812;2022-10-16T05:32:12;5.63;;;2.00;;
56331;SDS011;42237;53.340;6.812;2022-10-16T05:34:41;4.15;;;1.65;;
56331;SDS011;42237;53.340;6.812;2022-10-16T05:37:06;3.75;;;1.70;;
56331;SDS011;42237;53.340;6.812;2022-10-16T05:39:32;4.85;;;1.58;;
56331;SDS011;42237;53.340;6.812;2022-10-16T05:41:58;5.43;;;1.35;;
56331;SDS011;42237;53.340;6.812;2022-10-16T05:44:24;3.38;;;1.60;;
56331;SDS011;42237;53.340;6.812;2022-10-16T05:46:49;4.22;;;1.58;;
56331;SDS011;42237;53.340;6.812;2022-10-16T05:49:15;3.90;;;1.75;;
56331;SDS011;42237;53.340;6.812;2022-10-16T05:51:41;7.22;;;1.70;;
56331;SDS011;42237;53.340;6.812;2022-10-16T05:54:07;3.63;;;1.60;;
56331;SDS011;42237;53.340;6.812;2022-10-16T05:56:33;4.40;;;1.75;;
56331;SDS011;42237;53.340;6.812;2022-10-16T05:58:58;4.60;;;1.58;;
56331;SDS011;42237;53.340;6.812;2022-10-16T06:01:24;3.55;;;1.60;;
56331;SDS011;42237;53.340;6.812;2022-10-16T06:03:50;6.38;;;2.22;;
56331;SDS011;42237;53.340;6.812;2022-10-16T06:06:18;7.57;;;1.80;;
56331;SDS011;42237;53.340;6.812;2022-10-16T06:08:49;4.63;;;2.00;;
56331;SDS011;42237;53.340;6.812;2022-10-16T06:11:16;5.78;;;2.42;;
56331;SDS011;42237;53.340;6.812;2022-10-16T06:13:50;7.78;;;2.88;;
56331;SDS011;42237;53.340;6.812;2022-10-16T06:16:17;5.05;;;2.17;;
56331;SDS011;42237;53.340;6.812;2022-10-16T06:18:44;5.38;;;2.22;;
56331;SDS011;42237;53.340;6.812;2022-10-16T06:21:17;2.55;;;1.77;;
56331;SDS011;42237;53.340;6.812;2022-10-16T06:23:44;4.00;;;1.70;;
56331;SDS011;42237;53.340;6.812;2022-10-16T06:26:17;6.53;;;2.05;;
56331;SDS011;42237;53.340;6.812;2022-10-16T06:28:45;4.55;;;1.92;;
56331;SDS011;42237;53.340;6.812;2022-10-16T06:31:11;5.60;;;2.00;;
56331;SDS011;42237;53.340;6.812;2022-10-16T06:33:37;5.85;;;1.83;;
56331;SDS011;42237;53.340;6.812;2022-10-16T06:36:04;4.82;;;2.22;;
56331;SDS011;42237;53.340;6.812;2022-10-16T06:38:31;6.50;;;2.20;;
56331;SDS011;42237;53.340;6.812;2022-10-16T06:40:57;3.63;;;2.30;;
56331;SDS011;42237;53.340;6.812;2022-10-16T06:43:23;2.90;;;1.80;;
56331;SDS011;42237;53.340;6.812;2022-10-16T06:45:55;3.63;;;1.65;;
56331;SDS011;42237;53.340;6.812;2022-10-16T06:48:22;6.93;;;1.88;;
56331;SDS011;42237;53.340;6.812;2022-10-16T06:51:02;5.38;;;2.17;;
56331;SDS011;42237;53.340;6.812;2022-10-16T06:53:29;4.22;;;1.92;;
56331;SDS011;42237;53.340;6.812;2022-10-16T06:55:56;3.88;;;2.38;;
56331;SDS011;42237;53.340;6.812;2022-10-16T06:58:22;6.65;;;1.85;;
56331;SDS011;42237;53.340;6.812;2022-10-16T07:00:49;4.35;;;2.38;;
56331;SDS011;42237;53.340;6.812;2022-10-16T07:03:21;4.20;;;1.75;;
56331;SDS011;42237;53.340;6.812;2022-10-16T07:05:47;5.18;;;2.08;;
56331;SDS011;42237;53.340;6.812;2022-10-16T07:08:12;5.35;;;2.22;;
56331;SDS011;42237;53.340;6.812;2022-10-16T07:10:38;5.22;;;2.30;;
56331;SDS011;42237;53.340;6.812;2022-10-16T07:13:04;4.75;;;2.33;;
56331;SDS011;42237;53.340;6.812;2022-10-16T07:15:29;4.43;;;2.13;;
56331;SDS011;42237;53.340;6.812;2022-10-16T07:17:55;5.20;;;2.15;;
56331;SDS011;42237;53.340;6.812;2022-10-16T07:20:20;5.38;;;2.17;;
56331;SDS011;42237;53.340;6.812;2022-10-16T07:22:46;5.80;;;2.15;;
56331;SDS011;42237;53.340;6.812;2022-10-16T07:25:15;3.45;;;1.88;;
56331;SDS011;42237;53.340;6.812;2022-10-16T07:27:40;4.60;;;1.92;;
56331;SDS011;42237;53.340;6.812;2022-10-16T07:30:06;6.38;;;1.77;;
56331;SDS011;42237;53.340;6.812;2022-10-16T07:32:32;6.03;;;2.30;;
56331;SDS011;42237;53.340;6.812;2022-10-16T07:34:58;4.90;;;2.03;;
56331;SDS011;42237;53.340;6.812;2022-10-16T07:37:23;7.20;;;2.13;;
56331;SDS011;42237;53.340;6.812;2022-10-16T07:39:49;4.30;;;1.80;;
56331;SDS011;42237;53.340;6.812;2022-10-16T07:42:15;8.98;;;2.38;;
56331;SDS011;42237;53.340;6.812;2022-10-16T07:44:41;5.57;;;1.90;;
56331;SDS011;42237;53.340;6.812;2022-10-16T07:47:06;4.68;;;1.58;;
56331;SDS011;42237;53.340;6.812;2022-10-16T07:49:32;5.72;;;1.77;;
56331;SDS011;42237;53.340;6.812;2022-10-16T07:51:58;5.90;;;2.25;;
56331;SDS011;42237;53.340;6.812;2022-10-16T07:54:24;4.75;;;1.83;;
56331;SDS011;42237;53.340;6.812;2022-10-16T07:56:49;5.88;;;1.98;;
56331;SDS011;42237;53.340;6.812;2022-10-16T07:59:15;4.53;;;1.58;;
56331;SDS011;42237;53.340;6.812;2022-10-16T08:01:41;3.25;;;1.70;;
56331;SDS011;42237;53.340;6.812;2022-10-16T08:04:09;15.30;;;2.00;;
56331;SDS011;42237;53.340;6.812;2022-10-16T08:06:39;6.80;;;1.88;;
56331;SDS011;42237;53.340;6.812;2022-10-16T08:09:08;6.07;;;1.95;;
56331;SDS011;42237;53.340;6.812;2022-10-16T08:11:34;5.43;;;2.28;;
56331;SDS011;42237;53.340;6.812;2022-10-16T08:14:00;6.75;;;1.90;;
56331;SDS011;42237;53.340;6.812;2022-10-16T08:16:26;4.88;;;2.03;;
56331;SDS011;42237;53.340;6.812;2022-10-16T08:18:51;6.35;;;1.92;;
56331;SDS011;42237;53.340;6.812;2022-10-16T08:21:18;4.13;;;1.33;;
56331;SDS011;42237;53.340;6.812;2022-10-16T08:23:46;5.32;;;1.73;;
56331;SDS011;42237;53.340;6.812;2022-10-16T08:26:12;3.92;;;1.80;;
56331;SDS011;42237;53.340;6.812;2022-10-16T08:28:38;8.60;;;2.47;;
56331;SDS011;42237;53.340;6.812;2022-10-16T08:31:07;4.72;;;1.92;;
56331;SDS011;42237;53.340;6.812;2022-10-16T08:33:35;6.68;;;1.83;;
56331;SDS011;42237;53.340;6.812;2022-10-16T08:36:02;5.95;;;1.90;;
56331;SDS011;42237;53.340;6.812;2022-10-16T08:38:28;7.18;;;2.50;;
56331;SDS011;42237;53.340;6.812;2022-10-16T08:40:55;3.92;;;1.85;;
56331;SDS011;42237;53.340;6.812;2022-10-16T08:52:03;3.33;;;1.48;;
56331;SDS011;42237;53.340;6.812;2022-10-16T08:54:36;6.68;;;1.80;;
56331;SDS011;42237;53.340;6.812;2022-10-16T09:00:05;8.50;;;2.15;;
56331;SDS011;42237;53.340;6.812;2022-10-16T09:11:14;4.97;;;1.77;;
56331;SDS011;42237;53.340;6.812;2022-10-16T09:14:29;5.03;;;1.55;;
56331;SDS011;42237;53.340;6.812;2022-10-16T09:23:17;4.00;;;1.55;;
56331;SDS011;42237;53.340;6.812;2022-10-16T09:26:45;9.45;;;1.58;;
56331;SDS011;42237;53.340;6.812;2022-10-16T09:29:15;11.05;;;1.73;;
56331;SDS011;42237;53.340;6.812;2022-10-16T09:31:44;7.18;;;1.40;;
56331;SDS011;42237;53.340;6.812;2022-10-16T09:37:09;7.00;;;1.73;;
56331;SDS011;42237;53.340;6.812;2022-10-16T09:39:53;9.07;;;1.67;;
56331;SDS011;42237;53.340;6.812;2022-10-16T09:42:26;6.28;;;1.60;;
56331;SDS011;42237;53.340;6.812;2022-10-16T09:45:19;6.47;;;1.73;;
56331;SDS011;42237;53.340;6.812;2022-10-16T09:47:47;5.35;;;1.83;;
56331;SDS011;42237;53.340;6.812;2022-10-16T09:50:22;7.60;;;1.50;;
56331;SDS011;42237;53.340;6.812;2022-10-16T09:52:51;10.25;;;1.70;;
56331;SDS011;42237;53.340;6.812;2022-10-16T09:56:01;4.72;;;1.40;;
56331;SDS011;42237;53.340;6.812;2022-10-16T09:58:26;6.55;;;1.58;;
56331;SDS011;42237;53.340;6.812;2022-10-16T10:00:53;7.00;;;1.85;;
56331;SDS011;42237;53.340;6.812;2022-10-16T10:03:39;8.13;;;1.77;;
56331;SDS011;42237;53.340;6.812;2022-10-16T10:06:26;9.25;;;1.92;;
56331;SDS011;42237;53.340;6.812;2022-10-16T10:09:02;11.20;;;1.92;;
56331;SDS011;42237;53.340;6.812;2022-10-16T10:12:17;10.13;;;1.98;;
56331;SDS011;42237;53.340;6.812;2022-10-16T10:14:56;9.27;;;1.75;;
56331;SDS011;42237;53.340;6.812;2022-10-16T10:17:28;8.07;;;1.90;;
56331;SDS011;42237;53.340;6.812;2022-10-16T10:19:59;9.25;;;1.88;;
56331;SDS011;42237;53.340;6.812;2022-10-16T10:22:30;8.60;;;2.10;;
56331;SDS011;42237;53.340;6.812;2022-10-16T10:26:12;8.73;;;2.10;;
56331;SDS011;42237;53.340;6.812;2022-10-16T10:29:01;10.10;;;1.83;;
56331;SDS011;42237;53.340;6.812;2022-10-16T10:37:40;11.93;;;2.28;;
56331;SDS011;42237;53.340;6.812;2022-10-16T10:51:32;7.57;;;2.00;;
56331;SDS011;42237;53.340;6.812;2022-10-16T10:58:34;6.85;;;1.88;;
56331;SDS011;42237;53.340;6.812;2022-10-16T11:08:19;13.90;;;2.00;;
56331;SDS011;42237;53.340;6.812;2022-10-16T11:11:11;9.98;;;1.70;;
56331;SDS011;42237;53.340;6.812;2022-10-16T11:21:46;7.75;;;1.63;;
56331;SDS011;42237;53.340;6.812;2022-10-16T11:27:38;14.15;;;2.05;;
56331;SDS011;42237;53.340;6.812;2022-10-16T11:30:22;14.18;;;2.17;;
56331;SDS011;42237;53.340;6.812;2022-10-16T11:35:33;8.15;;;2.10;;
56331;SDS011;42237;53.340;6.812;2022-10-16T11:42:18;6.53;;;1.63;;
56331;SDS011;42237;53.340;6.812;2022-10-16T11:48:48;8.48;;;2.45;;
56331;SDS011;42237;53.340;6.812;2022-10-16T11:59:04;10.55;;;2.38;;
56331;SDS011;42237;53.340;6.812;2022-10-16T12:01:42;6.95;;;1.80;;
56331;SDS011;42237;53.340;6.812;2022-10-16T12:07:01;13.07;;;2.58;;
56331;SDS011;42237;53.340;6.812;2022-10-16T12:09:36;7.50;;;1.70;;
56331;SDS011;42237;53.340;6.812;2022-10-16T12:12:03;10.85;;;1.73;;
56331;SDS011;42237;53.340;6.812;2022-10-16T12:14:34;8.93;;;1.70;;
56331;SDS011;42237;53.340;6.812;2022-10-16T12:17:03;12.68;;;2.08;;
56331;SDS011;42237;53.340;6.812;2022-10-16T12:22:53;8.98;;;1.58;;
56331;SDS011;42237;53.340;6.812;2022-10-16T12:25:25;16.65;;;1.85;;
56331;SDS011;42237;53.340;6.812;2022-10-16T12:32:34;9.35;;;2.15;;
56331;SDS011;42237;53.340;6.812;2022-10-16T12:44:25;7.00;;;1.75;;
56331;SDS011;42237;53.340;6.812;2022-10-16T12:47:18;9.43;;;2.03;;
56331;SDS011;42237;53.340;6.812;2022-10-16T12:53:24;9.50;;;1.75;;
56331;SDS011;42237;53.340;6.812;2022-10-16T12:56:15;8.68;;;2.13;;
56331;SDS011;42237;53.340;6.812;2022-10-16T12:58:57;7.20;;;1.65;;
56331;SDS011;42237;53.340;6.812;2022-10-16T13:10:25;7.13;;;1.92;;
56331;SDS011;42237;53.340;6.812;2022-10-16T13:31:37;7.43;;;1.33;;
56331;SDS011;42237;53.340;6.812;2022-10-16T13:34:04;9.88;;;1.80;;
56331;SDS011;42237;53.340;6.812;2022-10-16T13:36:35;10.38;;;2.15;;
56331;SDS011;42237;53.340;6.812;2022-10-16T13:39:25;5.90;;;1.45;;
56331;SDS011;42237;53.340;6.812;2022-10-16T13:45:24;7.75;;;1.38;;
56331;SDS011;42237;53.340;6.812;2022-10-16T13:48:01;7.75;;;1.60;;
56331;SDS011;42237;53.340;6.812;2022-10-16T13:50:30;9.65;;;2.10;;
56331;SDS011;42237;53.340;6.812;2022-10-16T13:53:06;10.85;;;1.85;;
56331;SDS011;42237;53.340;6.812;2022-10-16T13:55:37;10.43;;;2.08;;
56331;SDS011;42237;53.340;6.812;2022-10-16T13:58:16;8.07;;;2.00;;
56331;SDS011;42237;53.340;6.812;2022-10-16T14:04:37;9.10;;;1.45;;
56331;SDS011;42237;53.340;6.812;2022-10-16T14:07:04;7.00;;;1.75;;
56331;SDS011;42237;53.340;6.812;2022-10-16T14:16:36;8.00;;;1.60;;
56331;SDS011;42237;53.340;6.812;2022-10-16T14:19:05;11.57;;;1.95;;
56331;SDS011;42237;53.340;6.812;2022-10-16T14:21:32;11.77;;;1.90;;
56331;SDS011;42237;53.340;6.812;2022-10-16T14:23:59;11.82;;;2.65;;
56331;SDS011;42237;53.340;6.812;2022-10-16T14:26:41;6.43;;;1.60;;
56331;SDS011;42237;53.340;6.812;2022-10-16T14:29:12;12.52;;;2.13;;
56331;SDS011;42237;53.340;6.812;2022-10-16T14:31:40;8.07;;;1.58;;
56331;SDS011;42237;53.340;6.812;2022-10-16T14:34:22;7.00;;;1.83;;
56331;SDS011;42237;53.340;6.812;2022-10-16T14:36:49;8.63;;;2.30;;
56331;SDS011;42237;53.340;6.812;2022-10-16T14:39:19;7.85;;;1.13;;
56331;SDS011;42237;53.340;6.812;2022-10-16T14:41:48;10.40;;;2.03;;
56331;SDS011;42237;53.340;6.812;2022-10-16T16:13:32;9.32;;;2.25;;
56331;SDS011;42237;53.340;6.812;2022-10-16T16:15:58;6.55;;;2.10;;
56331;SDS011;42237;53.340;6.812;2022-10-16T16:18:24;7.00;;;2.00;;
56331;SDS011;42237;53.340;6.812;2022-10-16T16:20:51;9.02;;;1.85;;
56331;SDS011;42237;53.340;6.812;2022-10-16T16:30:00;12.23;;;3.10;;
56331;SDS011;42237;53.340;6.812;2022-10-16T16:32:28;15.80;;;5.38;;
56331;SDS011;42237;53.340;6.812;2022-10-16T17:28:57;11.10;;;3.15;;
56331;SDS011;42237;53.340;6.812;2022-10-16T17:35:29;8.73;;;3.03;;
56331;SDS011;42237;53.340;6.812;2022-10-16T17:52:29;10.43;;;3.30;;
56331;SDS011;42237;53.340;6.812;2022-10-16T17:54:55;12.00;;;2.85;;
56331;SDS011;42237;53.340;6.812;2022-10-16T17:57:22;9.85;;;2.78;;
56331;SDS011;42237;53.340;6.812;2022-10-16T17:59:48;8.38;;;2.67;;
56331;SDS011;42237;53.340;6.812;2022-10-16T18:02:13;11.73;;;3.72;;
56331;SDS011;42237;53.340;6.812;2022-10-16T18:04:39;10.38;;;2.58;;
56331;SDS011;42237;53.340;6.812;2022-10-16T18:07:05;17.70;;;3.15;;
56331;SDS011;42237;53.340;6.812;2022-10-16T18:09:31;10.05;;;2.97;;
56331;SDS011;42237;53.340;6.812;2022-10-16T18:12:03;9.52;;;3.30;;
56331;SDS011;42237;53.340;6.812;2022-10-16T18:14:49;8.68;;;2.85;;
56331;SDS011;42237;53.340;6.812;2022-10-16T18:17:22;9.05;;;2.67;;
56331;SDS011;42237;53.340;6.812;2022-10-16T18:19:50;7.15;;;2.55;;
56331;SDS011;42237;53.340;6.812;2022-10-16T18:22:23;8.20;;;3.08;;
56331;SDS011;42237;53.340;6.812;2022-10-16T18:24:54;11.43;;;2.85;;
56331;SDS011;42237;53.340;6.812;2022-10-16T18:27:23;6.78;;;2.67;;
56331;SDS011;42237;53.340;6.812;2022-10-16T18:29:48;8.95;;;2.92;;
56331;SDS011;42237;53.340;6.812;2022-10-16T18:32:23;10.18;;;3.55;;
56331;SDS011;42237;53.340;6.812;2022-10-16T18:34:51;11.18;;;3.88;;
56331;SDS011;42237;53.340;6.812;2022-10-16T18:37:37;11.35;;;4.15;;
56331;SDS011;42237;53.340;6.812;2022-10-16T18:40:17;11.90;;;5.35;;
56331;SDS011;42237;53.340;6.812;2022-10-16T18:42:46;13.73;;;4.18;;
56331;SDS011;42237;53.340;6.812;2022-10-16T18:45:14;14.10;;;5.20;;
56331;SDS011;42237;53.340;6.812;2022-10-16T18:47:45;9.30;;;4.70;;
56331;SDS011;42237;53.340;6.812;2022-10-16T18:50:40;10.48;;;4.55;;
56331;SDS011;42237;53.340;6.812;2022-10-16T18:53:08;8.55;;;4.03;;
56331;SDS011;42237;53.340;6.812;2022-10-16T18:55:36;10.55;;;3.50;;
56331;SDS011;42237;53.340;6.812;2022-10-16T18:58:18;10.07;;;3.08;;
56331;SDS011;42237;53.340;6.812;2022-10-16T19:00:47;7.57;;;3.40;;
56331;SDS011;42237;53.340;6.812;2022-10-16T19:03:13;11.73;;;3.67;;
56331;SDS011;42237;53.340;6.812;2022-10-16T19:05:38;11.55;;;4.18;;
56331;SDS011;42237;53.340;6.812;2022-10-16T19:08:13;11.77;;;3.90;;
56331;SDS011;42237;53.340;6.812;2022-10-16T19:10:39;7.72;;;3.55;;
56331;SDS011;42237;53.340;6.812;2022-10-16T19:13:07;10.82;;;4.15;;
56331;SDS011;42237;53.340;6.812;2022-10-16T19:15:46;14.98;;;4.55;;
56331;SDS011;42237;53.340;6.812;2022-10-16T19:19:13;11.43;;;4.05;;
56331;SDS011;42237;53.340;6.812;2022-10-16T19:21:45;10.25;;;4.00;;
56331;SDS011;42237;53.340;6.812;2022-10-16T19:24:13;13.27;;;3.75;;
56331;SDS011;42237;53.340;6.812;2022-10-16T19:26:50;11.73;;;4.63;;
56331;SDS011;42237;53.340;6.812;2022-10-16T19:32:37;12.02;;;3.83;;
56331;SDS011;42237;53.340;6.812;2022-10-16T19:35:03;10.98;;;3.67;;
56331;SDS011;42237;53.340;6.812;2022-10-16T19:37:32;11.68;;;3.60;;
56331;SDS011;42237;53.340;6.812;2022-10-16T19:50:54;8.85;;;4.25;;
56331;SDS011;42237;53.340;6.812;2022-10-16T19:57:24;11.35;;;3.25;;
56331;SDS011;42237;53.340;6.812;2022-10-16T20:00:06;13.90;;;3.63;;
56331;SDS011;42237;53.340;6.812;2022-10-16T20:02:53;11.80;;;3.70;;
56331;SDS011;42237;53.340;6.812;2022-10-16T20:05:24;10.32;;;3.42;;
56331;SDS011;42237;53.340;6.812;2022-10-16T20:07:50;10.98;;;3.50;;
56331;SDS011;42237;53.340;6.812;2022-10-16T20:10:16;14.85;;;4.60;;
56331;SDS011;42237;53.340;6.812;2022-10-16T20:12:42;10.85;;;3.53;;
56331;SDS011;42237;53.340;6.812;2022-10-16T20:19:14;12.07;;;3.78;;
56331;SDS011;42237;53.340;6.812;2022-10-16T20:22:11;7.93;;;3.72;;
56331;SDS011;42237;53.340;6.812;2022-10-16T20:24:37;13.38;;;4.13;;
56331;SDS011;42237;53.340;6.812;2022-10-16T20:27:02;14.63;;;4.03;;
56331;SDS011;42237;53.340;6.812;2022-10-16T20:29:31;12.15;;;3.13;;
56331;SDS011;42237;53.340;6.812;2022-10-16T21:52:14;8.68;;;4.97;;
56331;SDS011;42237;53.340;6.812;2022-10-16T22:22:45;12.00;;;5.95;;
56331;SDS011;42237;53.340;6.812;2022-10-16T22:25:11;11.88;;;5.95;;
56331;SDS011;42237;53.340;6.812;2022-10-16T22:27:36;15.43;;;6.60;;
56331;SDS011;42237;53.340;6.812;2022-10-16T22:41:30;10.30;;;5.70;;
56331;SDS011;42237;53.340;6.812;2022-10-16T22:43:56;14.93;;;6.25;;
56331;SDS011;42237;53.340;6.812;2022-10-16T22:46:23;10.95;;;6.40;;
56331;SDS011;42237;53.340;6.812;2022-10-16T22:56:45;13.70;;;6.40;;
56331;SDS011;42237;53.340;6.812;2022-10-16T23:17:21;10.38;;;4.93;;
56331;SDS011;42237;53.340;6.812;2022-10-16T23:30:55;11.00;;;4.93;;
56331;SDS011;42237;53.340;6.812;2022-10-16T23:52:09;9.05;;;4.00;;
56331;SDS011;42237;53.340;6.812;2022-10-16T23:54:34;16.55;;;4.75;;
56331;SDS011;42237;53.340;6.812;2022-10-16T23:57:00;10.82;;;4.50;;
